sensor_id;sensor_type;location;lat;lon;timestamp;P1;durP1;ratioP1;P2;durP2;ratioP2
67193;SDS011;54121;53.508;49.422;2022-08-04T00:02:02;17.73;;;8.52;;
67193;SDS011;54121;53.508;49.422;2022-08-04T00:04:36;17.33;;;8.68;;
67193;SDS011;54121;53.508;49.422;2022-08-04T00:10:24;16.10;;;8.13;;
67193;SDS011;54121;53.508;49.422;2022-08-04T00:12:53;10.57;;;7.50;;
67193;SDS011;54121;53.508;49.422;2022-08-04T00:15:23;15.18;;;7.45;;
67193;SDS011;54121;53.508;49.422;2022-08-04T00:17:58;15.95;;;8.23;;
67193;SDS011;54121;53.508;49.422;2022-08-04T00:20:28;15.65;;;7.90;;
67193;SDS011;54121;53.508;49.422;2022-08-04T00:22:56;15.18;;;7.72;;
67193;SDS011;54121;53.508;49.422;2022-08-04T00:25:24;14.77;;;7.75;;
67193;SDS011;54121;53.508;49.422;2022-08-04T00:27:51;14.05;;;8.18;;
67193;SDS011;54121;53.508;49.422;2022-08-04T00:30:18;12.05;;;8.25;;
67193;SDS011;54121;53.508;49.422;2022-08-04T00:32:45;14.32;;;8.48;;
67193;SDS011;54121;53.508;49.422;2022-08-04T00:35:12;19.58;;;8.70;;
67193;SDS011;54121;53.508;49.422;2022-08-04T00:37:39;17.25;;;8.90;;
67193;SDS011;54121;53.508;49.422;2022-08-04T00:43:16;17.42;;;8.25;;
67193;SDS011;54121;53.508;49.422;2022-08-04T00:50:38;14.48;;;8.52;;
67193;SDS011;54121;53.508;49.422;2022-08-04T00:55:36;15.02;;;8.82;;
67193;SDS011;54121;53.508;49.422;2022-08-04T01:01:05;10.73;;;7.97;;
67193;SDS011;54121;53.508;49.422;2022-08-04T01:03:35;15.77;;;7.82;;
67193;SDS011;54121;53.508;49.422;2022-08-04T01:06:36;13.57;;;8.13;;
67193;SDS011;54121;53.508;49.422;2022-08-04T01:29:42;24.98;;;8.75;;
67193;SDS011;54121;53.508;49.422;2022-08-04T01:32:31;16.05;;;9.25;;
67193;SDS011;54121;53.508;49.422;2022-08-04T01:35:17;14.82;;;8.38;;
67193;SDS011;54121;53.508;49.422;2022-08-04T01:38:00;27.55;;;8.93;;
67193;SDS011;54121;53.508;49.422;2022-08-04T01:40:39;20.92;;;9.02;;
67193;SDS011;54121;53.508;49.422;2022-08-04T01:43:06;18.13;;;9.00;;
67193;SDS011;54121;53.508;49.422;2022-08-04T01:45:35;20.73;;;9.70;;
67193;SDS011;54121;53.508;49.422;2022-08-04T01:48:02;19.23;;;11.00;;
67193;SDS011;54121;53.508;49.422;2022-08-04T01:50:34;26.52;;;10.70;;
67193;SDS011;54121;53.508;49.422;2022-08-04T01:53:02;26.48;;;10.18;;
67193;SDS011;54121;53.508;49.422;2022-08-04T01:55:29;18.33;;;9.23;;
67193;SDS011;54121;53.508;49.422;2022-08-04T01:57:57;18.67;;;9.18;;
67193;SDS011;54121;53.508;49.422;2022-08-04T02:00:26;19.67;;;9.17;;
67193;SDS011;54121;53.508;49.422;2022-08-04T02:02:54;19.03;;;9.63;;
67193;SDS011;54121;53.508;49.422;2022-08-04T02:05:23;19.77;;;9.32;;
67193;SDS011;54121;53.508;49.422;2022-08-04T02:08:00;20.73;;;10.43;;
67193;SDS011;54121;53.508;49.422;2022-08-04T02:21:03;17.75;;;9.43;;
67193;SDS011;54121;53.508;49.422;2022-08-04T02:23:37;25.73;;;9.82;;
67193;SDS011;54121;53.508;49.422;2022-08-04T02:26:09;19.33;;;9.73;;
67193;SDS011;54121;53.508;49.422;2022-08-04T02:28:46;23.95;;;9.00;;
67193;SDS011;54121;53.508;49.422;2022-08-04T02:31:14;19.35;;;9.27;;
67193;SDS011;54121;53.508;49.422;2022-08-04T02:36:35;22.55;;;8.95;;
67193;SDS011;54121;53.508;49.422;2022-08-04T02:41:31;19.63;;;9.13;;
67193;SDS011;54121;53.508;49.422;2022-08-04T02:44:00;30.65;;;11.80;;
67193;SDS011;54121;53.508;49.422;2022-08-04T02:46:31;20.98;;;8.90;;
67193;SDS011;54121;53.508;49.422;2022-08-04T02:49:00;23.30;;;8.68;;
67193;SDS011;54121;53.508;49.422;2022-08-04T02:51:50;25.83;;;9.82;;
67193;SDS011;54121;53.508;49.422;2022-08-04T02:54:17;20.80;;;9.43;;
67193;SDS011;54121;53.508;49.422;2022-08-04T02:56:47;13.43;;;8.05;;
67193;SDS011;54121;53.508;49.422;2022-08-04T02:59:19;25.27;;;9.48;;
67193;SDS011;54121;53.508;49.422;2022-08-04T03:01:52;19.02;;;8.15;;
67193;SDS011;54121;53.508;49.422;2022-08-04T03:04:24;18.45;;;8.00;;
67193;SDS011;54121;53.508;49.422;2022-08-04T03:09:56;24.23;;;8.93;;
67193;SDS011;54121;53.508;49.422;2022-08-04T03:21:58;52.15;;;10.13;;
67193;SDS011;54121;53.508;49.422;2022-08-04T03:42:13;37.58;;;9.57;;
67193;SDS011;54121;53.508;49.422;2022-08-04T03:45:31;54.35;;;10.20;;
67193;SDS011;54121;53.508;49.422;2022-08-04T03:53:47;15.32;;;8.07;;
67193;SDS011;54121;53.508;49.422;2022-08-04T04:01:58;27.80;;;8.35;;
67193;SDS011;54121;53.508;49.422;2022-08-04T04:11:09;20.98;;;6.28;;
67193;SDS011;54121;53.508;49.422;2022-08-04T04:13:59;9.88;;;6.13;;
67193;SDS011;54121;53.508;49.422;2022-08-04T04:22:53;13.85;;;6.28;;
67193;SDS011;54121;53.508;49.422;2022-08-04T04:31:22;13.60;;;5.80;;
67193;SDS011;54121;53.508;49.422;2022-08-04T04:33:57;20.88;;;6.00;;
67193;SDS011;54121;53.508;49.422;2022-08-04T04:48:08;20.73;;;7.07;;
67193;SDS011;54121;53.508;49.422;2022-08-04T04:56:46;37.95;;;10.95;;
67193;SDS011;54121;53.508;49.422;2022-08-04T04:59:19;33.08;;;11.95;;
67193;SDS011;54121;53.508;49.422;2022-08-04T05:04:45;42.05;;;11.68;;
67193;SDS011;54121;53.508;49.422;2022-08-04T05:10:38;41.78;;;12.88;;
67193;SDS011;54121;53.508;49.422;2022-08-04T05:13:35;52.75;;;10.80;;
67193;SDS011;54121;53.508;49.422;2022-08-04T05:16:09;37.45;;;13.25;;
67193;SDS011;54121;53.508;49.422;2022-08-04T05:18:42;33.50;;;13.65;;
67193;SDS011;54121;53.508;49.422;2022-08-04T05:21:21;44.45;;;13.13;;
67193;SDS011;54121;53.508;49.422;2022-08-04T05:24:03;35.85;;;12.38;;
67193;SDS011;54121;53.508;49.422;2022-08-04T05:26:35;44.42;;;16.58;;
67193;SDS011;54121;53.508;49.422;2022-08-04T05:29:06;37.60;;;15.60;;
67193;SDS011;54121;53.508;49.422;2022-08-04T05:31:40;64.03;;;17.27;;
67193;SDS011;54121;53.508;49.422;2022-08-04T05:34:11;43.60;;;15.68;;
67193;SDS011;54121;53.508;49.422;2022-08-04T05:36:43;41.58;;;14.65;;
67193;SDS011;54121;53.508;49.422;2022-08-04T05:39:21;36.30;;;16.13;;
67193;SDS011;54121;53.508;49.422;2022-08-04T05:41:50;44.17;;;15.95;;
67193;SDS011;54121;53.508;49.422;2022-08-04T05:44:17;42.95;;;15.93;;
67193;SDS011;54121;53.508;49.422;2022-08-04T05:49:12;48.15;;;16.40;;
67193;SDS011;54121;53.508;49.422;2022-08-04T05:51:41;39.97;;;17.80;;
67193;SDS011;54121;53.508;49.422;2022-08-04T05:54:09;54.72;;;20.90;;
67193;SDS011;54121;53.508;49.422;2022-08-04T05:56:36;60.58;;;21.90;;
67193;SDS011;54121;53.508;49.422;2022-08-04T05:59:04;60.50;;;25.23;;
67193;SDS011;54121;53.508;49.422;2022-08-04T06:01:31;57.15;;;22.55;;
67193;SDS011;54121;53.508;49.422;2022-08-04T06:04:00;50.95;;;21.60;;
67193;SDS011;54121;53.508;49.422;2022-08-04T06:06:28;52.90;;;22.25;;
67193;SDS011;54121;53.508;49.422;2022-08-04T06:11:23;21.85;;;7.63;;
67193;SDS011;54121;53.508;49.422;2022-08-04T06:13:53;25.00;;;5.85;;
67193;SDS011;54121;53.508;49.422;2022-08-04T06:16:28;16.52;;;4.10;;
67193;SDS011;54121;53.508;49.422;2022-08-04T06:19:02;10.82;;;4.32;;
67193;SDS011;54121;53.508;49.422;2022-08-04T06:21:30;11.60;;;3.95;;
67193;SDS011;54121;53.508;49.422;2022-08-04T06:23:57;12.18;;;4.85;;
67193;SDS011;54121;53.508;49.422;2022-08-04T06:26:25;10.88;;;4.13;;
67193;SDS011;54121;53.508;49.422;2022-08-04T06:28:54;14.25;;;5.18;;
67193;SDS011;54121;53.508;49.422;2022-08-04T06:31:22;18.95;;;4.43;;
67193;SDS011;54121;53.508;49.422;2022-08-04T06:34:14;10.50;;;3.30;;
67193;SDS011;54121;53.508;49.422;2022-08-04T06:36:41;13.15;;;3.53;;
67193;SDS011;54121;53.508;49.422;2022-08-04T06:39:09;8.37;;;3.10;;
67193;SDS011;54121;53.508;49.422;2022-08-04T06:41:35;14.68;;;5.10;;
67193;SDS011;54121;53.508;49.422;2022-08-04T06:44:09;8.50;;;3.58;;
67193;SDS011;54121;53.508;49.422;2022-08-04T06:46:39;9.05;;;4.15;;
67193;SDS011;54121;53.508;49.422;2022-08-04T06:49:06;7.47;;;3.17;;
67193;SDS011;54121;53.508;49.422;2022-08-04T06:51:35;8.20;;;3.17;;
67193;SDS011;54121;53.508;49.422;2022-08-04T06:54:03;12.02;;;3.97;;
67193;SDS011;54121;53.508;49.422;2022-08-04T06:56:30;5.75;;;2.92;;
67193;SDS011;54121;53.508;49.422;2022-08-04T06:58:59;5.10;;;2.60;;
67193;SDS011;54121;53.508;49.422;2022-08-04T07:01:28;12.45;;;2.70;;
67193;SDS011;54121;53.508;49.422;2022-08-04T07:03:56;6.88;;;3.15;;
67193;SDS011;54121;53.508;49.422;2022-08-04T07:06:23;5.85;;;3.00;;
67193;SDS011;54121;53.508;49.422;2022-08-04T07:08:50;8.20;;;2.80;;
67193;SDS011;54121;53.508;49.422;2022-08-04T07:11:18;9.63;;;3.70;;
67193;SDS011;54121;53.508;49.422;2022-08-04T07:16:14;9.70;;;2.63;;
67193;SDS011;54121;53.508;49.422;2022-08-04T07:18:43;5.40;;;2.47;;
67193;SDS011;54121;53.508;49.422;2022-08-04T07:21:10;7.45;;;2.65;;
67193;SDS011;54121;53.508;49.422;2022-08-04T07:23:43;11.93;;;2.47;;
67193;SDS011;54121;53.508;49.422;2022-08-04T07:26:10;3.00;;;2.00;;
67193;SDS011;54121;53.508;49.422;2022-08-04T07:28:40;7.22;;;1.90;;
67193;SDS011;54121;53.508;49.422;2022-08-04T07:31:08;3.85;;;1.70;;
67193;SDS011;54121;53.508;49.422;2022-08-04T07:33:37;4.93;;;1.80;;
67193;SDS011;54121;53.508;49.422;2022-08-04T07:36:06;6.18;;;1.90;;
67193;SDS011;54121;53.508;49.422;2022-08-04T07:38:33;5.28;;;2.08;;
67193;SDS011;54121;53.508;49.422;2022-08-04T07:41:00;5.88;;;2.58;;
67193;SDS011;54121;53.508;49.422;2022-08-04T07:43:29;2.53;;;1.58;;
67193;SDS011;54121;53.508;49.422;2022-08-04T07:48:22;3.55;;;1.63;;
67193;SDS011;54121;53.508;49.422;2022-08-04T07:50:49;2.38;;;1.60;;
67193;SDS011;54121;53.508;49.422;2022-08-04T07:53:18;5.05;;;1.50;;
67193;SDS011;54121;53.508;49.422;2022-08-04T07:55:46;3.95;;;1.48;;
67193;SDS011;54121;53.508;49.422;2022-08-04T07:58:14;2.93;;;1.57;;
67193;SDS011;54121;53.508;49.422;2022-08-04T08:00:42;2.78;;;1.40;;
67193;SDS011;54121;53.508;49.422;2022-08-04T08:03:11;3.97;;;1.52;;
67193;SDS011;54121;53.508;49.422;2022-08-04T08:05:39;2.53;;;1.50;;
67193;SDS011;54121;53.508;49.422;2022-08-04T08:08:06;4.78;;;1.70;;
67193;SDS011;54121;53.508;49.422;2022-08-04T08:10:33;2.80;;;1.35;;
67193;SDS011;54121;53.508;49.422;2022-08-04T08:12:59;4.38;;;1.58;;
67193;SDS011;54121;53.508;49.422;2022-08-04T08:15:26;5.32;;;1.77;;
67193;SDS011;54121;53.508;49.422;2022-08-04T08:17:53;8.88;;;1.85;;
67193;SDS011;54121;53.508;49.422;2022-08-04T08:20:20;2.22;;;1.40;;
67193;SDS011;54121;53.508;49.422;2022-08-04T08:22:46;6.22;;;1.52;;
67193;SDS011;54121;53.508;49.422;2022-08-04T08:25:13;4.93;;;1.33;;
67193;SDS011;54121;53.508;49.422;2022-08-04T08:27:39;4.03;;;1.30;;
67193;SDS011;54121;53.508;49.422;2022-08-04T08:30:06;6.47;;;1.58;;
67193;SDS011;54121;53.508;49.422;2022-08-04T08:32:33;2.42;;;1.40;;
67193;SDS011;54121;53.508;49.422;2022-08-04T08:35:00;7.90;;;1.80;;
67193;SDS011;54121;53.508;49.422;2022-08-04T08:37:37;9.10;;;1.77;;
67193;SDS011;54121;53.508;49.422;2022-08-04T08:42:54;3.03;;;1.17;;
67193;SDS011;54121;53.508;49.422;2022-08-04T08:59:36;3.15;;;1.30;;
67193;SDS011;54121;53.508;49.422;2022-08-04T09:05:18;3.08;;;1.40;;
67193;SDS011;54121;53.508;49.422;2022-08-04T09:10:57;1.90;;;1.42;;
67193;SDS011;54121;53.508;49.422;2022-08-04T09:13:56;2.40;;;1.38;;
67193;SDS011;54121;53.508;49.422;2022-08-04T09:16:33;2.63;;;1.38;;
67193;SDS011;54121;53.508;49.422;2022-08-04T09:40:44;6.40;;;1.42;;
67193;SDS011;54121;53.508;49.422;2022-08-04T09:46:49;7.43;;;1.95;;
67193;SDS011;54121;53.508;49.422;2022-08-04T09:49:52;8.43;;;2.97;;
67193;SDS011;54121;53.508;49.422;2022-08-04T09:55:17;7.13;;;2.90;;
67193;SDS011;54121;53.508;49.422;2022-08-04T09:58:00;7.55;;;2.90;;
67193;SDS011;54121;53.508;49.422;2022-08-04T10:00:50;4.05;;;2.10;;
67193;SDS011;54121;53.508;49.422;2022-08-04T10:03:25;8.20;;;2.33;;
67193;SDS011;54121;53.508;49.422;2022-08-04T10:14:09;7.78;;;6.18;;
67193;SDS011;54121;53.508;49.422;2022-08-04T10:16:59;7.35;;;3.60;;
67193;SDS011;54121;53.508;49.422;2022-08-04T10:19:37;8.23;;;2.75;;
67193;SDS011;54121;53.508;49.422;2022-08-04T10:22:20;5.40;;;1.73;;
67193;SDS011;54121;53.508;49.422;2022-08-04T10:28:14;4.28;;;1.95;;
67193;SDS011;54121;53.508;49.422;2022-08-04T10:30:47;3.47;;;2.00;;
67193;SDS011;54121;53.508;49.422;2022-08-04T10:36:15;8.60;;;2.15;;
67193;SDS011;54121;53.508;49.422;2022-08-04T10:41:17;5.28;;;2.90;;
67193;SDS011;54121;53.508;49.422;2022-08-04T10:46:35;8.40;;;2.28;;
67193;SDS011;54121;53.508;49.422;2022-08-04T10:49:12;8.75;;;2.60;;
67193;SDS011;54121;53.508;49.422;2022-08-04T10:54:40;3.22;;;2.00;;
67193;SDS011;54121;53.508;49.422;2022-08-04T10:57:53;3.13;;;1.30;;
67193;SDS011;54121;53.508;49.422;2022-08-04T11:00:26;5.72;;;1.60;;
67193;SDS011;54121;53.508;49.422;2022-08-04T11:08:25;4.50;;;1.50;;
67193;SDS011;54121;53.508;49.422;2022-08-04T11:10:59;2.25;;;1.23;;
67193;SDS011;54121;53.508;49.422;2022-08-04T11:13:39;1.95;;;1.50;;
67193;SDS011;54121;53.508;49.422;2022-08-04T11:16:12;7.80;;;1.65;;
67193;SDS011;54121;53.508;49.422;2022-08-04T11:18:48;3.53;;;1.70;;
67193;SDS011;54121;53.508;49.422;2022-08-04T11:21:42;5.25;;;1.33;;
67193;SDS011;54121;53.508;49.422;2022-08-04T11:29:34;4.20;;;1.50;;
67193;SDS011;54121;53.508;49.422;2022-08-04T11:32:20;2.55;;;1.33;;
67193;SDS011;54121;53.508;49.422;2022-08-04T11:34:59;5.18;;;1.40;;
67193;SDS011;54121;53.508;49.422;2022-08-04T11:37:48;3.70;;;1.10;;
67193;SDS011;54121;53.508;49.422;2022-08-04T11:40:35;5.22;;;1.95;;
67193;SDS011;54121;53.508;49.422;2022-08-04T11:43:15;4.70;;;1.40;;
67193;SDS011;54121;53.508;49.422;2022-08-04T11:45:54;4.45;;;1.52;;
67193;SDS011;54121;53.508;49.422;2022-08-04T11:48:36;3.75;;;1.30;;
67193;SDS011;54121;53.508;49.422;2022-08-04T11:51:31;2.90;;;1.38;;
67193;SDS011;54121;53.508;49.422;2022-08-04T11:53:59;3.47;;;1.55;;
67193;SDS011;54121;53.508;49.422;2022-08-04T11:56:26;4.18;;;1.55;;
67193;SDS011;54121;53.508;49.422;2022-08-04T11:58:53;5.47;;;2.00;;
67193;SDS011;54121;53.508;49.422;2022-08-04T12:04:13;3.75;;;1.88;;
67193;SDS011;54121;53.508;49.422;2022-08-04T12:07:10;3.70;;;1.73;;
67193;SDS011;54121;53.508;49.422;2022-08-04T12:10:29;4.22;;;2.05;;
67193;SDS011;54121;53.508;49.422;2022-08-04T12:15:52;2.58;;;1.33;;
67193;SDS011;54121;53.508;49.422;2022-08-04T12:18:29;9.05;;;1.98;;
67193;SDS011;54121;53.508;49.422;2022-08-04T12:21:07;4.38;;;1.90;;
67193;SDS011;54121;53.508;49.422;2022-08-04T12:23:43;4.53;;;2.00;;
67193;SDS011;54121;53.508;49.422;2022-08-04T12:26:14;7.10;;;2.25;;
67193;SDS011;54121;53.508;49.422;2022-08-04T12:31:20;4.32;;;1.80;;
67193;SDS011;54121;53.508;49.422;2022-08-04T12:33:58;5.93;;;3.08;;
67193;SDS011;54121;53.508;49.422;2022-08-04T12:36:36;8.90;;;2.78;;
67193;SDS011;54121;53.508;49.422;2022-08-04T12:39:16;10.55;;;3.20;;
67193;SDS011;54121;53.508;49.422;2022-08-04T12:44:19;9.32;;;2.70;;
67193;SDS011;54121;53.508;49.422;2022-08-04T12:46:46;11.48;;;2.72;;
67193;SDS011;54121;53.508;49.422;2022-08-04T12:49:14;8.48;;;2.90;;
67193;SDS011;54121;53.508;49.422;2022-08-04T12:51:43;8.60;;;3.25;;
67193;SDS011;54121;53.508;49.422;2022-08-04T12:54:11;11.98;;;3.60;;
67193;SDS011;54121;53.508;49.422;2022-08-04T12:56:38;11.37;;;4.80;;
67193;SDS011;54121;53.508;49.422;2022-08-04T12:59:06;10.73;;;3.78;;
67193;SDS011;54121;53.508;49.422;2022-08-04T13:01:36;8.95;;;3.72;;
67193;SDS011;54121;53.508;49.422;2022-08-04T13:06:32;13.95;;;4.65;;
67193;SDS011;54121;53.508;49.422;2022-08-04T13:09:09;12.30;;;4.65;;
67193;SDS011;54121;53.508;49.422;2022-08-04T13:11:42;6.93;;;3.33;;
67193;SDS011;54121;53.508;49.422;2022-08-04T13:14:12;12.63;;;4.32;;
67193;SDS011;54121;53.508;49.422;2022-08-04T13:16:40;8.73;;;3.97;;
67193;SDS011;54121;53.508;49.422;2022-08-04T13:19:07;10.13;;;3.80;;
67193;SDS011;54121;53.508;49.422;2022-08-04T13:21:39;8.05;;;3.63;;
67193;SDS011;54121;53.508;49.422;2022-08-04T13:24:14;7.30;;;3.67;;
67193;SDS011;54121;53.508;49.422;2022-08-04T13:26:55;9.20;;;3.08;;
67193;SDS011;54121;53.508;49.422;2022-08-04T13:29:26;4.40;;;2.70;;
67193;SDS011;54121;53.508;49.422;2022-08-04T13:31:56;8.55;;;3.05;;
67193;SDS011;54121;53.508;49.422;2022-08-04T13:34:24;4.22;;;2.70;;
67193;SDS011;54121;53.508;49.422;2022-08-04T13:36:55;2.92;;;2.60;;
67193;SDS011;54121;53.508;49.422;2022-08-04T13:39:22;3.83;;;2.30;;
67193;SDS011;54121;53.508;49.422;2022-08-04T13:41:51;6.47;;;2.40;;
67193;SDS011;54121;53.508;49.422;2022-08-04T13:44:20;3.70;;;2.30;;
67193;SDS011;54121;53.508;49.422;2022-08-04T13:47:48;2.72;;;2.08;;
67193;SDS011;54121;53.508;49.422;2022-08-04T13:50:04;5.22;;;2.28;;
67193;SDS011;54121;53.508;49.422;2022-08-04T13:52:32;3.97;;;2.38;;
67193;SDS011;54121;53.508;49.422;2022-08-04T13:54:59;4.68;;;2.20;;
67193;SDS011;54121;53.508;49.422;2022-08-04T13:57:30;5.03;;;2.60;;
67193;SDS011;54121;53.508;49.422;2022-08-04T14:00:01;3.85;;;2.30;;
67193;SDS011;54121;53.508;49.422;2022-08-04T14:02:58;4.30;;;2.72;;
67193;SDS011;54121;53.508;49.422;2022-08-04T14:05:27;7.82;;;2.88;;
67193;SDS011;54121;53.508;49.422;2022-08-04T14:07:59;7.20;;;2.78;;
67193;SDS011;54121;53.508;49.422;2022-08-04T14:10:31;6.47;;;3.45;;
67193;SDS011;54121;53.508;49.422;2022-08-04T14:12:58;7.72;;;3.60;;
67193;SDS011;54121;53.508;49.422;2022-08-04T14:15:58;13.82;;;5.00;;
67193;SDS011;54121;53.508;49.422;2022-08-04T14:18:19;7.05;;;3.83;;
67193;SDS011;54121;53.508;49.422;2022-08-04T14:26:15;6.90;;;3.22;;
67193;SDS011;54121;53.508;49.422;2022-08-04T14:28:44;8.93;;;5.53;;
67193;SDS011;54121;53.508;49.422;2022-08-04T14:31:14;11.43;;;5.70;;
67193;SDS011;54121;53.508;49.422;2022-08-04T14:33:43;5.47;;;4.43;;
67193;SDS011;54121;53.508;49.422;2022-08-04T14:36:11;13.15;;;6.88;;
67193;SDS011;54121;53.508;49.422;2022-08-04T14:41:15;14.57;;;7.03;;
67193;SDS011;54121;53.508;49.422;2022-08-04T14:43:44;11.10;;;7.60;;
67193;SDS011;54121;53.508;49.422;2022-08-04T14:46:11;15.77;;;6.90;;
67193;SDS011;54121;53.508;49.422;2022-08-04T14:48:38;18.00;;;9.30;;
67193;SDS011;54121;53.508;49.422;2022-08-04T14:51:11;11.00;;;6.25;;
67193;SDS011;54121;53.508;49.422;2022-08-04T14:53:45;14.80;;;6.75;;
67193;SDS011;54121;53.508;49.422;2022-08-04T14:56:13;23.20;;;6.75;;
67193;SDS011;54121;53.508;49.422;2022-08-04T14:58:40;12.27;;;5.10;;
67193;SDS011;54121;53.508;49.422;2022-08-04T15:01:08;11.52;;;5.82;;
67193;SDS011;54121;53.508;49.422;2022-08-04T15:03:36;21.17;;;11.98;;
67193;SDS011;54121;53.508;49.422;2022-08-04T15:06:05;16.33;;;9.50;;
67193;SDS011;54121;53.508;49.422;2022-08-04T15:08:32;26.40;;;10.32;;
67193;SDS011;54121;53.508;49.422;2022-08-04T15:10:59;19.65;;;9.02;;
67193;SDS011;54121;53.508;49.422;2022-08-04T15:13:28;11.35;;;7.22;;
67193;SDS011;54121;53.508;49.422;2022-08-04T15:15:55;13.10;;;7.15;;
67193;SDS011;54121;53.508;49.422;2022-08-04T15:18:22;11.32;;;6.40;;
67193;SDS011;54121;53.508;49.422;2022-08-04T15:20:55;9.95;;;5.50;;
67193;SDS011;54121;53.508;49.422;2022-08-04T15:23:23;22.67;;;5.65;;
67193;SDS011;54121;53.508;49.422;2022-08-04T15:25:51;20.90;;;6.88;;
67193;SDS011;54121;53.508;49.422;2022-08-04T15:28:22;15.20;;;5.70;;
67193;SDS011;54121;53.508;49.422;2022-08-04T15:30:50;19.85;;;8.00;;
67193;SDS011;54121;53.508;49.422;2022-08-04T15:33:20;10.27;;;7.00;;
67193;SDS011;54121;53.508;49.422;2022-08-04T15:38:41;15.05;;;7.40;;
67193;SDS011;54121;53.508;49.422;2022-08-04T15:41:19;22.98;;;7.70;;
67193;SDS011;54121;53.508;49.422;2022-08-04T15:44:37;29.30;;;8.57;;
67193;SDS011;54121;53.508;49.422;2022-08-04T15:47:11;20.58;;;8.38;;
67193;SDS011;54121;53.508;49.422;2022-08-04T15:49:39;20.20;;;7.40;;
67193;SDS011;54121;53.508;49.422;2022-08-04T15:52:07;27.58;;;8.02;;
67193;SDS011;54121;53.508;49.422;2022-08-04T15:54:37;22.25;;;8.38;;
67193;SDS011;54121;53.508;49.422;2022-08-04T15:57:05;34.38;;;7.85;;
67193;SDS011;54121;53.508;49.422;2022-08-04T16:02:29;15.75;;;5.80;;
67193;SDS011;54121;53.508;49.422;2022-08-04T16:12:56;13.88;;;4.80;;
67193;SDS011;54121;53.508;49.422;2022-08-04T16:20:57;23.33;;;6.20;;
67193;SDS011;54121;53.508;49.422;2022-08-04T16:25:50;17.10;;;4.90;;
67193;SDS011;54121;53.508;49.422;2022-08-04T16:28:36;17.77;;;6.00;;
67193;SDS011;54121;53.508;49.422;2022-08-04T16:31:05;18.00;;;6.30;;
67193;SDS011;54121;53.508;49.422;2022-08-04T16:33:33;16.17;;;5.70;;
67193;SDS011;54121;53.508;49.422;2022-08-04T16:36:00;12.90;;;4.80;;
67193;SDS011;54121;53.508;49.422;2022-08-04T16:38:27;15.98;;;6.00;;
67193;SDS011;54121;53.508;49.422;2022-08-04T16:40:55;16.30;;;6.25;;
67193;SDS011;54121;53.508;49.422;2022-08-04T16:43:25;25.38;;;7.18;;
67193;SDS011;54121;53.508;49.422;2022-08-04T16:46:02;25.45;;;6.00;;
67193;SDS011;54121;53.508;49.422;2022-08-04T16:48:29;8.02;;;5.55;;
67193;SDS011;54121;53.508;49.422;2022-08-04T16:51:16;15.90;;;6.47;;
67193;SDS011;54121;53.508;49.422;2022-08-04T16:53:44;18.83;;;6.97;;
67193;SDS011;54121;53.508;49.422;2022-08-04T16:56:14;22.98;;;6.88;;
67193;SDS011;54121;53.508;49.422;2022-08-04T16:58:44;18.17;;;6.65;;
67193;SDS011;54121;53.508;49.422;2022-08-04T17:01:13;18.58;;;6.18;;
67193;SDS011;54121;53.508;49.422;2022-08-04T17:03:51;20.25;;;6.53;;
67193;SDS011;54121;53.508;49.422;2022-08-04T17:06:18;18.48;;;6.15;;
67193;SDS011;54121;53.508;49.422;2022-08-04T17:08:45;19.45;;;6.55;;
67193;SDS011;54121;53.508;49.422;2022-08-04T17:13:43;29.83;;;6.25;;
67193;SDS011;54121;53.508;49.422;2022-08-04T17:16:11;18.05;;;6.72;;
67193;SDS011;54121;53.508;49.422;2022-08-04T17:18:40;27.25;;;7.80;;
67193;SDS011;54121;53.508;49.422;2022-08-04T17:21:11;23.85;;;6.85;;
67193;SDS011;54121;53.508;49.422;2022-08-04T17:23:39;15.75;;;6.53;;
67193;SDS011;54121;53.508;49.422;2022-08-04T17:26:15;24.85;;;7.15;;
67193;SDS011;54121;53.508;49.422;2022-08-04T17:28:45;27.35;;;6.88;;
67193;SDS011;54121;53.508;49.422;2022-08-04T17:31:12;21.10;;;6.68;;
67193;SDS011;54121;53.508;49.422;2022-08-04T17:33:43;24.88;;;7.35;;
67193;SDS011;54121;53.508;49.422;2022-08-04T17:36:11;25.58;;;7.63;;
67193;SDS011;54121;53.508;49.422;2022-08-04T17:38:42;21.92;;;7.45;;
67193;SDS011;54121;53.508;49.422;2022-08-04T17:41:10;25.45;;;7.72;;
67193;SDS011;54121;53.508;49.422;2022-08-04T17:43:44;22.75;;;8.32;;
67193;SDS011;54121;53.508;49.422;2022-08-04T17:48:41;17.55;;;7.07;;
67193;SDS011;54121;53.508;49.422;2022-08-04T17:51:14;19.00;;;7.68;;
67193;SDS011;54121;53.508;49.422;2022-08-04T17:53:41;16.88;;;6.15;;
67193;SDS011;54121;53.508;49.422;2022-08-04T17:56:29;18.13;;;7.28;;
67193;SDS011;54121;53.508;49.422;2022-08-04T18:01:47;26.58;;;8.07;;
67193;SDS011;54121;53.508;49.422;2022-08-04T18:07:20;18.92;;;7.20;;
67193;SDS011;54121;53.508;49.422;2022-08-04T18:09:49;19.05;;;7.32;;
67193;SDS011;54121;53.508;49.422;2022-08-04T18:14:52;19.65;;;7.35;;
67193;SDS011;54121;53.508;49.422;2022-08-04T18:17:32;20.97;;;7.77;;
67193;SDS011;54121;53.508;49.422;2022-08-04T18:20:14;21.10;;;6.68;;
67193;SDS011;54121;53.508;49.422;2022-08-04T18:22:44;15.07;;;6.10;;
67193;SDS011;54121;53.508;49.422;2022-08-04T18:25:13;17.08;;;5.53;;
67193;SDS011;54121;53.508;49.422;2022-08-04T18:27:46;16.98;;;5.82;;
67193;SDS011;54121;53.508;49.422;2022-08-04T18:30:14;11.50;;;5.05;;
67193;SDS011;54121;53.508;49.422;2022-08-04T18:32:41;17.52;;;6.25;;
67193;SDS011;54121;53.508;49.422;2022-08-04T18:35:08;17.30;;;5.97;;
67193;SDS011;54121;53.508;49.422;2022-08-04T18:37:35;15.52;;;5.05;;
67193;SDS011;54121;53.508;49.422;2022-08-04T18:40:03;14.18;;;5.38;;
67193;SDS011;54121;53.508;49.422;2022-08-04T18:42:30;12.65;;;6.03;;
67193;SDS011;54121;53.508;49.422;2022-08-04T18:44:56;18.45;;;5.53;;
67193;SDS011;54121;53.508;49.422;2022-08-04T18:47:23;18.92;;;6.38;;
67193;SDS011;54121;53.508;49.422;2022-08-04T18:49:51;26.38;;;9.20;;
67193;SDS011;54121;53.508;49.422;2022-08-04T18:52:18;19.38;;;6.43;;
67193;SDS011;54121;53.508;49.422;2022-08-04T18:54:45;26.95;;;7.15;;
67193;SDS011;54121;53.508;49.422;2022-08-04T18:57:25;16.80;;;6.05;;
67193;SDS011;54121;53.508;49.422;2022-08-04T18:59:55;29.38;;;7.85;;
67193;SDS011;54121;53.508;49.422;2022-08-04T19:02:22;29.23;;;7.65;;
67193;SDS011;54121;53.508;49.422;2022-08-04T19:04:49;35.00;;;8.05;;
67193;SDS011;54121;53.508;49.422;2022-08-04T19:07:16;33.00;;;9.48;;
67193;SDS011;54121;53.508;49.422;2022-08-04T19:09:44;24.42;;;9.57;;
67193;SDS011;54121;53.508;49.422;2022-08-04T19:12:10;38.67;;;10.65;;
67193;SDS011;54121;53.508;49.422;2022-08-04T19:14:37;41.03;;;10.63;;
67193;SDS011;54121;53.508;49.422;2022-08-04T19:17:04;47.70;;;13.30;;
67193;SDS011;54121;53.508;49.422;2022-08-04T19:19:31;55.38;;;13.20;;
67193;SDS011;54121;53.508;49.422;2022-08-04T19:21:58;71.22;;;15.15;;
67193;SDS011;54121;53.508;49.422;2022-08-04T19:24:24;53.67;;;14.68;;
67193;SDS011;54121;53.508;49.422;2022-08-04T19:26:51;63.13;;;15.02;;
67193;SDS011;54121;53.508;49.422;2022-08-04T19:29:19;53.08;;;15.70;;
67193;SDS011;54121;53.508;49.422;2022-08-04T19:31:47;68.88;;;15.90;;
67193;SDS011;54121;53.508;49.422;2022-08-04T19:34:18;69.38;;;15.43;;
67193;SDS011;54121;53.508;49.422;2022-08-04T19:36:45;67.68;;;14.80;;
67193;SDS011;54121;53.508;49.422;2022-08-04T19:39:13;73.88;;;15.48;;
67193;SDS011;54121;53.508;49.422;2022-08-04T19:41:40;60.03;;;15.45;;